• Join FlightAware (Why Join?)
  • Login
  • US Flag 
02:00PM EDT


 

Airport Tracker/Info


-or-


 

Live Flight TrackerFlight Track Log ✈ PAC958 ✈ 11-May-2013 ✈ PANC - ZSPD / PVG

Flight Track Log - Related Links

Times and Time Zones

All times are in EDT time to prevent confusion due to time zone crossing. See the PAC958 flight status page for this flight to view local times or setup timezone preferences in your user account.

Time Position Orientation Groundspeed Altitude Reporting Facility
EDT Latitude Longitude Course Direction KTS MPH feet Rate Location/Type
08:50AM 61.1840 -150.0020 160° South  Level FlightAware
08:54AM 61.2080 -150.0200 343° North 161 185 1,400 360 Climbing FlightAware
08:54AM 61.2200 -150.0390 323° Northwest 172 198 1,900 1,680 Climbing FlightAware
08:55AM 61.2370 -150.0760 314° West 185 213 2,800 1,920 Climbing FlightAware
08:55AM 61.2400 -150.0930 290° West 184 212 3,200 2,160 Climbing FlightAware
08:55AM 61.2420 -150.1280 277° West 186 214 3,900 1,320 Climbing FlightAware
08:56AM 61.2460 -150.2410 274° West 256 295 4,900 1,620 Climbing FlightAware
08:57AM 61.2480 -150.3380 272° West 276 318 6,400 2,820 Climbing FlightAware
08:57AM 61.2510 -150.4290 274° West 284 327 8,200 3,000 Climbing FlightAware
08:58AM 61.2540 -150.5570 273° West 296 341 10,400 2,100 Climbing FlightAware
08:59AM 61.2580 -150.7080 273° West 350 403 11,600 1,500 Climbing FlightAware
09:00AM 61.2620 -150.8680 273° West 395 455 12,800 2,220 Climbing FlightAware
09:00AM 61.2660 -151.0470 273° West 411 473 15,000 2,880 Climbing FlightAware
09:01AM 61.2680 -151.1660 272° West 419 482 16,400 2,760 Climbing FlightAware
09:02AM 61.2730 -151.4050 273° West 434 499 19,200 2,760 Climbing FlightAware
09:03AM 61.2770 -151.5970 273° West 442 509 21,300 2,640 Climbing FlightAware
09:03AM 61.2780 -151.7020 271° West 448 516 22,300 2,280 Climbing FlightAware
09:04AM 61.2820 -151.9000 272° West 458 527 24,000 2,160 Climbing FlightAware
09:04AM 61.2840 -152.0780 271° West 467 537 25,400 2,100 Climbing FlightAware
09:05AM 61.2850 -152.2160 271° West 473 544 26,500 1,920 Climbing FlightAware
09:06AM 61.2850 -152.4180 270° West 484 557 27,800 2,040 Climbing FlightAware
09:07AM 61.2860 -152.7440 271° West 478 550 30,500 2,280 Climbing FlightAware
09:08AM 61.2860 -152.9500 270° West 470 541 32,200 2,100 Climbing FlightAware
09:08AM 61.2860 -153.1040 270° West 465 535 33,300 1,620 Climbing FlightAware
09:09AM 61.2860 -153.2610 270° West 465 535 34,100 1,260 Climbing FlightAware
09:09AM 61.2850 -153.4150 269° West 466 536 34,800 960 Climbing FlightAware
09:10AM 61.2840 -153.5920 269° West 471 542 35,300 900 Climbing FlightAware
09:11AM 61.2830 -153.7750 269° West 472 543 36,000 420 Climbing FlightAware
09:11AM 61.2820 -153.9990 270° West 473 544 36,000  Level FlightAware
09:12AM 61.2800 -154.1800 269° West 472 543 36,000  Level FlightAware
09:13AM 61.2790 -154.2970 269° West 471 542 36,000  Level FlightAware
09:13AM 61.2760 -154.5250 269° West 471 542 36,000  Level FlightAware
09:14AM 61.2750 -154.6450 269° West 471 542 36,000  Level FlightAware
09:14AM 61.2720 -154.7910 268° West 471 542 36,000  Level FlightAware
09:15AM 61.2700 -154.9450 269° West 471 542 36,000  Level FlightAware
09:16AM 61.2660 -155.1380 268° West 471 542 36,000  Level FlightAware
09:16AM 61.2640 -155.2530 268° West 471 542 36,000  Level FlightAware
09:17AM 61.2620 -155.4070 269° West 471 542 36,000  Level FlightAware
09:18AM 61.2580 -155.6380 268° West 471 542 36,000  Level FlightAware
09:19AM 61.2550 -155.8300 268° West 471 542 36,000  Level FlightAware
09:20AM 61.2520 -156.0230 268° West 471 542 36,000  Level FlightAware
09:20AM 61.2500 -156.1380 268° West 471 542 36,000  Level FlightAware
09:21AM 61.2460 -156.3690 268° West 471 542 36,000  Level FlightAware
09:22AM 61.2430 -156.5230 268° West 471 542 36,000  Level FlightAware
09:23AM 61.2390 -156.7540 268° West 471 542 36,000  Level FlightAware
09:24AM 61.2370 -156.9080 269° West 471 542 36,000  Level FlightAware
09:24AM 61.1833 -157.4500 269° West 470 541 36,000  Level Anchorage Center
09:25AM 61.1667 -157.7167 263° West 480 552 36,000  Level Anchorage Center
09:26AM 61.1500 -157.9833 263° West 470 541 36,000  Level Anchorage Center
09:27AM 61.1333 -158.2500 263° West 470 541 36,000  Level Anchorage Center
09:28AM 61.1167 -158.5333 263° West 470 541 36,000  Level Anchorage Center
09:29AM 61.1000 -158.8000 263° West 460 529 36,000  Level Anchorage Center
09:30AM 61.0833 -159.0667 263° West 470 541 36,000  Level Anchorage Center
09:31AM 61.0667 -159.3333 263° West 470 541 36,000  Level Anchorage Center
09:32AM 61.0500 -159.6000 263° West 460 529 36,000  Level Anchorage Center
09:33AM 61.0333 -159.8667 263° West 470 541 36,000  Level Anchorage Center
09:34AM 61.0167 -160.1333 263° West 470 541 36,000  Level Anchorage Center
09:35AM 60.9833 -160.4000 256° West 460 529 36,000  Level Anchorage Center
09:36AM 60.9667 -160.6667 263° West 470 541 36,000  Level Anchorage Center
09:37AM 60.9500 -160.9000 262° West 470 541 36,000  Level Anchorage Center
09:38AM 60.9167 -161.1667 256° West 470 541 36,000  Level Anchorage Center
09:39AM 60.9000 -161.4667 264° West 460 529 36,000  Level Anchorage Center
09:40AM 60.8833 -161.7333 263° West 470 541 36,000  Level Anchorage Center
09:41AM 60.8500 -162.0000 256° West 470 541 36,000  Level Anchorage Center
09:42AM 60.8333 -162.2500 262° West 480 552 36,000  Level Anchorage Center
09:43AM 60.8000 -162.5333 257° West 470 541 36,000  Level Anchorage Center
09:44AM 60.7833 -162.7833 262° West 470 541 36,000  Level Anchorage Center
09:45AM 60.7500 -163.0500 256° West 470 541 36,000  Level Anchorage Center
09:46AM 60.7167 -163.3167 256° West 470 541 36,000  Level Anchorage Center
09:47AM 60.7000 -163.5833 263° West 460 529 36,000  Level Anchorage Center
09:48AM 60.6667 -163.8333 255° West 460 529 36,000  Level Anchorage Center
09:49AM 60.6333 -164.1000 256° West 470 541 36,000  Level Anchorage Center
09:50AM 60.6167 -164.3667 263° West 460 529 36,000  Level Anchorage Center
09:51AM 60.5833 -164.6167 255° West 470 541 36,000  Level Anchorage Center
09:52AM 60.5500 -164.8833 256° West 470 541 36,000  Level Anchorage Center
09:53AM 60.5167 -165.1500 256° West 470 541 36,000  Level Anchorage Center
09:54AM 60.4833 -165.4000 255° West 460 529 36,000  Level Anchorage Center
09:55AM 60.4500 -165.6500 255° West 460 529 36,000  Level Anchorage Center
09:56AM 60.4333 -165.9167 263° West 460 529 36,000  Level Anchorage Center
09:57AM 60.4000 -166.1667 255° West 470 541 36,000  Level Anchorage Center
09:58AM 60.3833 -166.2667 251° West 470 541 36,000  Level Anchorage Center
09:59AM 60.3500 -166.5333 256° West 470 541 36,000  Level Anchorage Center
10:00AM 60.3167 -166.7833 255° West 460 529 36,000  Level Anchorage Center
10:01AM 60.2833 -167.0333 255° West 470 541 36,000  Level Anchorage Center
10:02AM 60.2500 -167.3000 256° West 470 541 36,000  Level Anchorage Center
10:03AM 60.2167 -167.5500 255° West 460 529 36,000  Level Anchorage Center
10:04AM 60.1833 -167.8000 255° West 470 541 36,000  Level Anchorage Center
10:05AM 60.1333 -168.0500 248° West 470 541 36,000  Level Anchorage Center
10:06AM 60.1000 -168.3000 255° West 460 529 36,000  Level Anchorage Center
10:07AM 60.0667 -168.5667 256° West 470 541 36,000  Level Anchorage Center
10:08AM 60.0333 -168.8000 254° West 470 541 36,000  Level Anchorage Center
10:09AM 60.0000 -169.0500 255° West 460 529 36,000  Level Anchorage Center
10:10AM 59.9500 -169.3167 250° West 470 541 36,000  Level Anchorage Center
10:11AM 59.9167 -169.5500 254° West 470 541 36,000  Level Anchorage Center
10:12AM 59.8833 -169.8000 255° West 470 541 36,000  Level Anchorage Center
10:13AM 59.8500 -170.0500 255° West 460 529 36,000  Level Anchorage Center
10:14AM 59.8000 -170.2833 247° West 460 529 36,000  Level Anchorage Center
10:15AM 59.7667 -170.5333 255° West 450 518 36,000  Level Anchorage Center
10:16AM 59.7167 -170.7667 247° West 460 529 36,000  Level Anchorage Center
10:17AM 59.6833 -171.0167 255° West 470 541 36,000  Level Anchorage Center
10:18AM 59.6333 -171.2667 249° West 470 541 36,000  Level Anchorage Center
10:19AM 59.6000 -171.5000 254° West 460 529 36,000  Level Anchorage Center
10:20AM 59.5500 -171.7500 249° West 460 529 36,000  Level Anchorage Center
10:21AM 59.5167 -171.9833 254° West 450 518 36,000  Level Anchorage Center
10:22AM 59.4667 -172.2167 247° West 460 529 36,000  Level Anchorage Center
10:23AM 59.4167 -172.4500 247° West 460 529 36,000  Level Anchorage Center
10:24AM 59.3667 -172.6833 247° West 460 529 36,000  Level Anchorage Center
10:25AM 59.3167 -172.9333 249° West 460 529 36,000  Level Anchorage Center
10:26AM 59.2667 -173.1667 247° West 460 529 36,000  Level Anchorage Center
10:27AM 59.2167 -173.4000 247° West 460 529 36,000  Level Anchorage Center
10:28AM 59.1667 -173.6333 247° West 470 541 36,000  Level Anchorage Center
10:29AM 59.1167 -173.8667 247° West 460 529 36,000  Level Anchorage Center
10:30AM 59.0667 -174.1000 247° West 460 529 36,000  Level Anchorage Center
10:31AM 59.0167 -174.3333 247° West 460 529 36,000  Level Anchorage Center
10:32AM 58.9667 -174.5500 246° West 460 529 36,000  Level Anchorage Center
10:33AM 58.9167 -174.7833 248° West 460 529 36,000  Level Anchorage Center
10:34AM 58.8667 -175.0167 248° West 460 529 36,000  Level Anchorage Center
10:35AM 58.8167 -175.2500 248° West 460 529 36,000  Level Anchorage Center
10:36AM 58.7667 -175.4667 246° West 460 529 36,000  Level Anchorage Center
10:37AM 58.7000 -175.7000 241° Southwest 470 541 36,000  Level Anchorage Center
10:38AM 58.6500 -175.9333 248° West 470 541 36,000  Level Anchorage Center
10:39AM 58.6000 -176.1500 246° West 460 529 36,000  Level Anchorage Center
10:40AM 58.5500 -176.3333 242° Southwest 460 529 36,000  Level Anchorage Center
10:41AM 58.5000 -176.5667 248° West 460 529 36,000  Level Anchorage Center
10:42AM 58.4500 -176.7833 246° West 470 541 36,000  Level Anchorage Center
10:43AM 58.4000 -177.0000 246° West 460 529 36,000  Level Anchorage Center
10:44AM 58.3333 -177.2333 242° Southwest 460 529 36,000  Level Anchorage Center
10:45AM 58.2833 -177.4500 246° West 460 529 36,000  Level Anchorage Center
10:48AM 58.1888 -177.8249 245° Southwest  Level FlightAware Approximate
10:55AM 57.8144 -179.2508 244° Southwest  Level FlightAware Approximate
10:56AM 57.7596 -179.4521 243° Southwest  Level FlightAware Approximate
10:56AM 57.6667 -179.8667 242° Southwest 480 552 36,000  Level Anchorage Center
10:57AM 57.7045 -179.6527 243° Southwest  Level FlightAware Approximate
10:58AM 57.6491 -179.8528 243° Southwest  Level FlightAware Approximate
10:59AM 57.5934 -180.0522 243° Southwest  Level FlightAware Approximate
11:00AM 57.5373 -180.2510 242° Southwest  Level FlightAware Approximate
11:01AM 57.4810 -180.4492 242° Southwest  Level FlightAware Approximate
11:02AM 57.2716 -181.2315 241° Southwest 480 552 36,000  Level FlightAware Transoceanic
11:03AM 57.2044 -181.4561 241° Southwest 480 552 36,000  Level FlightAware Transoceanic
11:04AM 57.1367 -181.6799 241° Southwest 480 552 36,000  Level FlightAware Transoceanic
11:05AM 57.0687 -181.9029 241° Southwest 480 552 36,000  Level FlightAware Transoceanic
11:05AM 57.0500 178.0500 241° Southwest 488 562 36,000  Level Anchorage Center
11:06AM 57.0002 -182.1251 240° Southwest 480 552 36,000  Level FlightAware Transoceanic
11:07AM 56.9314 -182.3464 240° Southwest 480 552 36,000  Level FlightAware Transoceanic
11:08AM 56.8621 -182.5669 240° Southwest 480 552 36,000  Level FlightAware Transoceanic
11:08AM 56.8333 177.3500 240° Southwest 492 566 36,000  Level Anchorage Center
11:09AM 56.7925 -182.7866 240° Southwest 480 552 36,000  Level FlightAware Transoceanic
11:10AM 56.7225 -183.0055 240° Southwest 480 552 36,000  Level FlightAware Transoceanic
11:11AM 56.6370 176.7400 239° Southwest 488 562 36,000  Level FlightAware Transoceanic
11:12AM 56.5668 176.5245 239° Southwest 488 562 36,000  Level FlightAware Transoceanic
11:13AM 56.4963 176.3098 239° Southwest 488 562 36,000  Level FlightAware Transoceanic
11:14AM 56.4253 176.0959 239° Southwest 488 562 36,000  Level FlightAware Transoceanic
11:15AM 56.4159 176.0647 239° Southwest 492 566 36,000  Level FlightAware Transoceanic
11:15AM 56.4000 176.0000 239° Southwest 497 572 36,000  Level Anchorage Center
11:16AM 56.3451 175.8532 239° Southwest 492 566 36,000  Level FlightAware Transoceanic
11:17AM 56.2738 175.6425 239° Southwest 492 566 36,000  Level FlightAware Transoceanic
11:17AM 56.2500 175.5667 238° Southwest 510 587 36,000  Level Anchorage Center
11:18AM 56.2023 175.4327 238° Southwest 492 566 36,000  Level FlightAware Transoceanic
11:18AM 56.1667 175.3500 235° Southwest 490 564 36,000  Level Anchorage Center
11:19AM 56.1304 175.2236 238° Southwest 492 566 36,000  Level FlightAware Transoceanic
11:19AM 56.0833 175.1167 237° Southwest 510 587 36,000  Level Anchorage Center
11:20AM 56.0581 175.0152 238° Southwest 492 566 36,000  Level FlightAware Transoceanic
11:20AM 56.0167 174.9167 239° Southwest 500 575 36,000  Level Anchorage Center
11:21AM 55.9739 174.7633 238° Southwest 497 572 36,000  Level FlightAware Transoceanic
11:21AM 55.9333 174.7000 236° Southwest 490 564 36,000  Level Anchorage Center
11:22AM 55.9017 174.5598 238° Southwest 497 572 36,000  Level FlightAware Transoceanic
11:22AM 55.8667 174.5167 237° Southwest 490 564 36,000  Level Anchorage Center
11:23AM 55.8000 174.2833 243° Southwest 500 575 36,000  Level Anchorage Center
11:25AM 55.6500 173.8833 237° Southwest 500 575 36,000  Level Anchorage Center
11:26AM 55.5833 173.7167 235° Southwest 490 564 36,000  Level Anchorage Center
11:27AM 55.5000 173.4833 238° Southwest 500 575 36,000  Level Anchorage Center
11:28AM 55.4167 173.2667 236° Southwest 500 575 36,000  Level Anchorage Center
11:29AM 55.3500 173.0833 237° Southwest 510 587 36,000  Level Anchorage Center
11:30AM 55.2667 172.8500 238° Southwest 520 598 36,000  Level Anchorage Center
11:31AM 55.2000 172.6667 238° Southwest 510 587 36,000  Level Anchorage Center
11:32AM 55.1000 172.4500 231° Southwest 500 575 36,000  Level Anchorage Center
11:33AM 55.0333 172.2833 235° Southwest 500 575 36,000  Level Anchorage Center
11:34AM 54.9500 172.0667 236° Southwest 500 575 36,000  Level Anchorage Center
11:35AM 54.8833 171.9000 235° Southwest 490 564 36,000  Level Anchorage Center
11:36AM 54.8000 171.6667 238° Southwest 500 575 36,000  Level Anchorage Center
11:37AM 54.7167 171.4667 234° Southwest 500 575 36,000  Level Anchorage Center
11:38AM 54.6333 171.2833 232° Southwest 500 575 36,000  Level Anchorage Center
11:39AM 54.5500 171.0833 234° Southwest 500 575 36,000  Level Anchorage Center
11:40AM 54.4833 170.9167 235° Southwest 510 587 36,000  Level Anchorage Center
11:41AM 54.3833 170.7000 232° Southwest 500 575 36,000  Level Anchorage Center
11:42AM 54.3167 170.5333 236° Southwest 510 587 36,000  Level Anchorage Center
11:43AM 54.2167 170.3000 234° Southwest 550 633 36,000  Level Anchorage Center
11:44AM 54.1333 170.1000 235° Southwest 500 575 36,000  Level Anchorage Center
11:45AM 54.0500 169.9333 230° Southwest 510 587 36,000  Level Anchorage Center
11:46AM 53.9667 169.7333 235° Southwest 510 587 36,000  Level Anchorage Center
11:47AM 53.8833 169.5667 230° Southwest 510 587 36,000  Level Anchorage Center
11:48AM 53.8000 169.3500 237° Southwest 490 564 36,000  Level Anchorage Center
11:49AM 53.7167 169.1833 230° Southwest 520 598 36,000  Level Anchorage Center
11:50AM 53.6500 168.9667 243° Southwest 510 587 36,000  Level Anchorage Center
11:51AM 53.5833 168.7833 239° Southwest 510 587 36,000  Level Anchorage Center
11:52AM 53.5000 168.5667 237° Southwest 520 598 36,000  Level Anchorage Center
11:54AM 53.4333 168.3000 240° Southwest 784 902 36,000  Level Anchorage Center
11:55AM 53.4167 168.2333 240° Southwest 495 570 36,000  Level Anchorage Center
12:00PM 52.9741 167.0087 239° Southwest 784 902 36,000  Level FlightAware Transoceanic
12:01PM 52.9405 166.9013 239° Southwest 495 570 36,000  Level FlightAware Transoceanic
12:02PM 52.8712 166.7134 239° Southwest 495 570 36,000  Level FlightAware Transoceanic
12:03PM 52.8017 166.5262 238° Southwest 495 570 36,000  Level FlightAware Transoceanic
12:04PM 52.7319 166.3395 238° Southwest 495 570 36,000  Level FlightAware Transoceanic
12:04PM 52.7500 166.4167 238° Southwest 490 564 36,000  Level Anchorage Center
12:05PM 52.6618 166.1534 238° Southwest 495 570 36,000  Level FlightAware Transoceanic
12:06PM 52.5914 165.9679 238° Southwest 495 570 36,000  Level FlightAware Transoceanic
12:07PM 52.5207 165.7830 238° Southwest 495 570 36,000  Level FlightAware Transoceanic
12:08PM 52.4497 165.5988 238° Southwest 495 570 36,000  Level FlightAware Transoceanic
12:09PM 52.3784 165.4151 237° Southwest 495 570 36,000  Level FlightAware Transoceanic
12:10PM 52.2630 165.1434 237° Southwest 490 564 36,000  Level FlightAware Transoceanic
12:11PM 52.1923 164.9638 237° Southwest 490 564 36,000  Level FlightAware Transoceanic
12:12PM 52.1214 164.7848 237° Southwest 490 564 36,000  Level FlightAware Transoceanic
12:13PM 52.0502 164.6063 237° Southwest 490 564 36,000  Level FlightAware Transoceanic
12:13PM 52.0667 164.6500 237° Southwest 481 554 36,000  Level Anchorage Center
12:14PM 51.9787 164.4285 237° Southwest 490 564 36,000  Level FlightAware Transoceanic
12:15PM 51.9070 164.2511 237° Southwest 490 564 36,000  Level FlightAware Transoceanic
12:16PM 51.8349 164.0744 237° Southwest 490 564 36,000  Level FlightAware Transoceanic
12:17PM 51.7626 163.8982 236° Southwest 490 564 36,000  Level FlightAware Transoceanic
12:18PM 51.6901 163.7226 236° Southwest 490 564 36,000  Level FlightAware Transoceanic
12:18PM 51.6500 163.6500 236° Southwest 477 549 36,000  Level Anchorage Center
12:19PM 51.6309 163.5821 236° Southwest 481 554 36,000  Level FlightAware Transoceanic
12:20PM 51.5574 163.4061 236° Southwest 481 554 36,000  Level FlightAware Transoceanic
12:21PM 51.4835 163.2307 236° Southwest 481 554 36,000  Level FlightAware Transoceanic
12:22PM 51.4094 163.0558 236° Southwest 481 554 36,000  Level FlightAware Transoceanic
12:23PM 51.3351 162.8816 236° Southwest 481 554 36,000  Level FlightAware Transoceanic
12:23PM 51.3500 162.9333 236° Southwest 469 540 36,000  Level Anchorage Center
12:24PM 51.2181 162.6260 236° Southwest 477 549 36,000  Level FlightAware Transoceanic
12:25PM 51.1452 162.4572 235° Southwest 477 549 36,000  Level FlightAware Transoceanic
12:26PM 51.0721 162.2890 235° Southwest 477 549 36,000  Level FlightAware Transoceanic
12:27PM 50.9988 162.1213 235° Southwest 477 549 36,000  Level FlightAware Transoceanic
12:28PM 50.9252 161.9541 235° Southwest 477 549 36,000  Level FlightAware Transoceanic
12:29PM 50.8423 161.7662 235° Southwest 469 540 36,000  Level FlightAware Transoceanic
12:30PM 50.7689 161.6015 235° Southwest 469 540 36,000  Level FlightAware Transoceanic
12:31PM 50.6952 161.4374 235° Southwest 469 540 36,000  Level FlightAware Transoceanic
12:32PM 50.6212 161.2737 234° Southwest 469 540 36,000 900 Level FlightAware Transoceanic
12:32PM 50.6333 161.3000 234° Southwest 469 540 37,000  Climbing Anchorage Center
12:33PM 50.5471 161.1106 234° Southwest 469 540 36,000 -540 Descending FlightAware Transoceanic
12:34PM 50.4727 160.9480 234° Southwest 469 540 36,000  Level FlightAware Transoceanic
12:35PM 50.3981 160.7860 234° Southwest 469 540 36,000  Level FlightAware Transoceanic
12:36PM 50.3232 160.6244 234° Southwest 469 540 36,000  Level FlightAware Transoceanic
12:37PM 50.2482 160.4633 234° Southwest 469 540 36,000 600 Level FlightAware Transoceanic
12:37PM 50.2000 160.3833 234° Southwest 459 528 37,000 960 Climbing Anchorage Center
12:38PM 50.1791 160.3156 234° Southwest 469 540 37,000  Level FlightAware Transoceanic
12:39PM 50.1026 160.1534 234° Southwest 469 540 37,000  Level FlightAware Transoceanic
12:40PM 50.0258 159.9917 233° Southwest 469 540 37,000  Level FlightAware Transoceanic
12:41PM 49.9489 159.8305 233° Southwest 469 540 37,000  Level FlightAware Transoceanic
12:41PM 49.9167 159.7500 232° Southwest 458 527 37,000  Level Anchorage Center
12:42PM 49.8717 159.6698 233° Southwest 469 540 37,000  Level FlightAware Transoceanic
12:43PM 49.7979 159.5208 234° Southwest 459 528 37,000  Level FlightAware Transoceanic
12:44PM 49.7167 159.3500 233° Southwest 459 528 37,000  Level FlightAware Transoceanic
12:45PM 49.6412 159.1959 233° Southwest 459 528 37,000  Level FlightAware Transoceanic
12:46PM 49.5655 159.0422 233° Southwest 459 528 37,000  Level FlightAware Transoceanic
12:47PM 49.4896 158.8891 233° Southwest 458 527 37,000  Level FlightAware Transoceanic
12:48PM 49.4135 158.7364 232° Southwest 458 527 37,000  Level FlightAware Transoceanic
12:49PM 49.3372 158.5841 232° Southwest 458 527 37,000  Level FlightAware Transoceanic
12:50PM 49.2607 158.4324 232° Southwest 458 527 37,000  Level FlightAware Transoceanic
12:51PM 49.1839 158.2811 232° Southwest 458 527 37,000  Level FlightAware Transoceanic
12:52PM 49.1070 158.1303 232° Southwest 458 527 37,000  Level FlightAware Transoceanic
12:53PM 49.0299 157.9799 232° Southwest 458 527 37,000  Level FlightAware Transoceanic
12:54PM 48.9527 157.8301 232° Southwest 458 527 37,000  Level FlightAware Transoceanic
12:55PM 48.8752 157.6806 232° Southwest 458 527 37,000  Level FlightAware Transoceanic
12:56PM 48.7975 157.5317 232° Southwest 458 527 37,000  Level FlightAware Transoceanic
12:57PM 48.7196 157.3832 231° Southwest 458 527 37,000  Level FlightAware Transoceanic
12:58PM 48.6416 157.2352 231° Southwest 458 527 37,000  Level FlightAware Transoceanic
12:59PM 48.5633 157.0876 231° Southwest 458 527 37,000  Level FlightAware Transoceanic
01:00PM 48.4849 156.9405 231° Southwest 458 527 37,000  Level FlightAware Transoceanic
01:01PM 48.4063 156.7938 231° Southwest 458 527 37,000  Level FlightAware Transoceanic
01:02PM 48.3274 156.6476 231° Southwest 458 527 37,000  Level FlightAware Transoceanic
01:03PM 48.2485 156.5019 231° Southwest 458 527 37,000  Level FlightAware Transoceanic
01:04PM 48.1693 156.3566 231° Southwest 458 527 37,000  Level FlightAware Transoceanic
01:05PM 48.0899 156.2117 231° Southwest 458 527 37,000  Level FlightAware Transoceanic
01:06PM 48.0104 156.0673 230° Southwest 458 527 37,000  Level FlightAware Transoceanic
01:07PM 47.9307 155.9233 230° Southwest 458 527 37,000  Level FlightAware Transoceanic
01:08PM 47.8508 155.7798 230° Southwest 458 527 37,000  Level FlightAware Transoceanic
01:09PM 47.7707 155.6367 230° Southwest 458 527 37,000  Level FlightAware Transoceanic
01:10PM 47.6904 155.4941 230° Southwest 458 527 37,000  Level FlightAware Transoceanic
01:11PM 47.6100 155.3519 230° Southwest 458 527 37,000  Level FlightAware Transoceanic
01:12PM 47.5294 155.2101 230° Southwest 458 527 37,000  Level FlightAware Transoceanic
01:13PM 47.4486 155.0688 230° Southwest 458 527 37,000  Level FlightAware Transoceanic
01:14PM 47.3676 154.9279 230° Southwest 458 527 37,000  Level FlightAware Transoceanic
01:15PM 47.2865 154.7874 230° Southwest 458 527 37,000  Level FlightAware Transoceanic
01:16PM 47.2052 154.6474 229° Southwest 458 527 37,000  Level FlightAware Transoceanic
01:17PM 47.1238 154.5078 229° Southwest 458 527 37,000  Level FlightAware Transoceanic
01:18PM 47.0421 154.3686 229° Southwest 458 527 37,000  Level FlightAware Transoceanic
01:19PM 46.9603 154.2299 229° Southwest 458 527 37,000  Level FlightAware Transoceanic
01:20PM 46.8783 154.0915 229° Southwest 458 527 37,000  Level FlightAware Transoceanic
01:21PM 46.7962 153.9536 229° Southwest 458 527 37,000  Level FlightAware Transoceanic
01:22PM 46.7139 153.8161 229° Southwest 458 527 37,000  Level FlightAware Transoceanic
01:23PM 46.6314 153.6791 229° Southwest 458 527 37,000  Level FlightAware Transoceanic
01:24PM 46.5488 153.5424 229° Southwest 458 527 37,000  Level FlightAware Transoceanic
01:25PM 46.4660 153.4062 229° Southwest 458 527 37,000  Level FlightAware Transoceanic
01:26PM 46.3831 153.2704 228° Southwest 458 527 37,000  Level FlightAware Transoceanic
01:27PM 46.2999 153.1350 228° Southwest 458 527 37,000  Level FlightAware Transoceanic
01:28PM 46.2195 153.0046 228° Southwest  Level FlightAware Approximate
01:29PM 46.1390 152.8745 228° Southwest  Level FlightAware Approximate
01:30PM 46.1413 152.8798 228° Southwest  Level FlightAware Approximate
01:31PM 46.0601 152.7508 228° Southwest  Level FlightAware Approximate
01:32PM 45.9788 152.6222 228° Southwest  Level FlightAware Approximate
01:33PM 45.8973 152.4940 228° Southwest  Level FlightAware Approximate
01:34PM 45.8156 152.3661 228° Southwest  Level FlightAware Approximate
01:35PM 45.7339 152.2386 227° Southwest  Level FlightAware Approximate
01:36PM 45.6519 152.1115 227° Southwest  Level FlightAware Approximate
01:37PM 45.5699 151.9848 227° Southwest  Level FlightAware Approximate
01:38PM 45.4877 151.8584 227° Southwest  Level FlightAware Approximate
01:39PM 45.4053 151.7324 227° Southwest  Level FlightAware Approximate
01:40PM 45.3228 151.6068 227° Southwest  Level FlightAware Approximate
01:41PM 45.2402 151.4815 227° Southwest  Level FlightAware Approximate
01:42PM 45.1575 151.3566 227° Southwest  Level FlightAware Approximate
01:43PM 45.0746 151.2321 227° Southwest  Level FlightAware Approximate
01:44PM 44.9915 151.1079 227° Southwest  Level FlightAware Approximate
01:45PM 44.9084 150.9841 227° Southwest  Level FlightAware Approximate
01:46PM 44.8251 150.8606 226° Southwest  Level FlightAware Approximate
01:47PM 44.7416 150.7375 226° Southwest  Level FlightAware Approximate
01:48PM 44.6581 150.6148 226° Southwest  Level FlightAware Approximate
01:49PM 44.5744 150.4924 226° Southwest  Level FlightAware Approximate
01:50PM 44.4906 150.3703 226° Southwest  Level FlightAware Approximate
01:51PM 44.4066 150.2487 226° Southwest  Level FlightAware Approximate
01:52PM 44.3226 150.1273 226° Southwest  Level FlightAware Approximate
01:53PM 44.2383 150.0063 226° Southwest  Level FlightAware Approximate
01:54PM 44.1540 149.8857 226° Southwest  Level FlightAware Approximate
01:55PM 44.0695 149.7654 226° Southwest  Level FlightAware Approximate
01:56PM 43.9850 149.6454 226° Southwest  Level FlightAware Approximate
01:57PM 43.9002 149.5258 226° Southwest  Level FlightAware Approximate
01:58PM 43.8154 149.4065 225° Southwest  Level FlightAware Approximate
01:59PM 43.7304 149.2876 225° Southwest  Level FlightAware Approximate
01:59PM 43.3850 148.8090 225° Southwest 452 520 37,000  Level FlightAware
02:00PM 43.6454 149.1690 225° Southwest  Level FlightAware Approximate
02:00PM 43.3170 148.7160 225° Southwest 451 519 37,000  Level FlightAware
02:01PM 43.2510 148.6260 225° Southwest 444 511 37,000  Level FlightAware
02:01PM 43.1920 148.5460 225° Southwest 444 511 37,000  Level FlightAware
02:02PM 43.1330 148.4650 225° Southwest 443 510 37,000  Level FlightAware
02:03PM 43.0740 148.3840 225° Southwest 448 516 37,000  Level FlightAware
02:03PM 43.0080 148.2950 225° Southwest 442 509 37,000  Level FlightAware
02:04PM 42.9490 148.2160 224° Southwest 446 513 37,000  Level FlightAware
02:05PM 42.8860 148.1320 224° Southwest 440 506 37,000  Level FlightAware
02:05PM 42.8240 148.0490 224° Southwest 439 505 37,000  Level FlightAware
02:06PM 42.7590 147.9610 225° Southwest 446 513 37,000  Level FlightAware
02:07PM 42.7020 147.8860 224° Southwest 448 516 37,000  Level FlightAware
02:07PM 42.6400 147.8030 225° Southwest 450 518 37,000  Level FlightAware
02:08PM 42.5730 147.7160 224° Southwest 451 519 37,000  Level FlightAware
02:09PM 42.5130 147.6360 225° Southwest 450 518 37,000  Level FlightAware
02:10PM 42.4450 147.5470 224° Southwest 450 518 37,000  Level FlightAware
02:10PM 42.3850 147.4690 224° Southwest 449 517 37,000  Level FlightAware
02:11PM 42.3270 147.3920 224° Southwest 449 517 37,000  Level FlightAware
02:12PM 42.2590 147.3020 224° Southwest 451 519 37,000  Level FlightAware
02:12PM 42.1990 147.2250 224° Southwest 452 520 37,000  Level FlightAware
02:13PM 42.1310 147.1360 224° Southwest 452 520 37,000  Level FlightAware
02:14PM 42.0710 147.0580 224° Southwest 451 519 37,000  Level FlightAware
02:14PM 42.0110 146.9810 224° Southwest 451 519 37,000  Level FlightAware
02:15PM 41.9430 146.8930 224° Southwest 444 511 37,000  Level FlightAware
02:16PM 41.8970 146.8040 235° Southwest 436 502 37,000  Level FlightAware
02:17PM 41.8590 146.6930 245° Southwest 438 504 37,000  Level FlightAware
02:17PM 41.8260 146.5940 246° West 439 505 37,000  Level FlightAware
02:18PM 41.7930 146.4960 246° West 440 506 37,000  Level FlightAware
02:19PM 41.7540 146.3820 245° Southwest 437 503 37,000  Level FlightAware
02:19PM 41.7190 146.2830 245° Southwest 437 503 37,000  Level FlightAware
02:20PM 41.6850 146.1850 245° Southwest 437 503 37,000  Level FlightAware
02:21PM 41.6470 146.0740 245° Southwest 437 503 37,000  Level FlightAware
02:21PM 41.6130 145.9760 245° Southwest 435 501 37,000  Level FlightAware
02:22PM 41.5740 145.8650 245° Southwest 434 499 37,000  Level FlightAware
02:23PM 41.5290 145.7380 245° Southwest 433 498 37,000  Level FlightAware
02:24PM 41.4950 145.6410 245° Southwest 432 497 37,000  Level FlightAware
02:25PM 41.4560 145.5310 245° Southwest 431 496 37,000  Level FlightAware
02:25PM 41.4220 145.4360 245° Southwest 430 495 37,000  Level FlightAware
02:26PM 41.3830 145.3280 244° Southwest 430 495 37,000  Level FlightAware
02:27PM 41.3490 145.2310 245° Southwest 429 494 37,000  Level FlightAware
02:27PM 41.3140 145.1350 244° Southwest 427 491 37,000  Level FlightAware
02:28PM 41.2760 145.0300 244° Southwest 422 486 37,000  Level FlightAware
02:29PM 41.2420 144.9360 244° Southwest 418 481 37,000  Level FlightAware
02:29PM 41.2050 144.8340 244° Southwest 419 482 37,000  Level FlightAware
02:30PM 41.1700 144.7380 244° Southwest 418 481 37,000  Level FlightAware
02:31PM 41.1370 144.6470 244° Southwest 414 476 37,000  Level FlightAware
02:32PM 41.0990 144.5450 244° Southwest 414 476 37,000  Level FlightAware
02:32PM 41.0650 144.4520 244° Southwest 418 481 37,000  Level FlightAware
02:33PM 41.0320 144.3610 244° Southwest 420 483 37,000  Level FlightAware
02:34PM 40.9890 144.2450 244° Southwest 421 484 37,000  Level FlightAware
02:34PM 40.9550 144.1530 244° Southwest 422 486 37,000  Level FlightAware
02:35PM 40.9190 144.0590 243° Southwest 423 487 37,000  Level FlightAware
02:36PM 40.8800 143.9530 244° Southwest 430 495 37,000  Level FlightAware
02:36PM 40.8440 143.8580 243° Southwest 433 498 37,000  Level FlightAware
02:37PM 40.8040 143.7520 244° Southwest 435 501 37,000  Level FlightAware
02:38PM 40.7680 143.6570 243° Southwest 436 502 37,000 420 Level FlightAware
02:38PM 40.7280 143.5640 240° Southwest 435 501 37,600 660 Climbing FlightAware
02:39PM 40.6760 143.4640 236° Southwest 434 499 38,000 240 Climbing FlightAware
02:40PM 40.6310 143.3770 236° Southwest 432 497 38,000  Level FlightAware
02:41PM 40.5790 143.2780 235° Southwest 430 495 38,000  Level FlightAware
02:41PM 40.5330 143.1920 235° Southwest 431 496 38,000  Level FlightAware
02:42PM 40.4880 143.1050 236° Southwest 429 494 38,000  Level FlightAware
02:43PM 40.4370 143.0110 235° Southwest 424 488 38,000  Level FlightAware
02:43PM 40.3930 142.9270 235° Southwest 421 484 38,000  Level FlightAware
02:45PM 40.2880 142.7310 235° Southwest 422 486 38,000  Level FlightAware
02:46PM 40.2420 142.6440 235° Southwest 425 489 38,000  Level FlightAware
02:46PM 40.1890 142.5450 235° Southwest 422 486 38,000  Level FlightAware
02:47PM 40.1380 142.4510 235° Southwest 422 486 38,000  Level FlightAware
02:48PM 40.0940 142.3700 235° Southwest 424 488 38,000  Level FlightAware
02:49PM 40.0470 142.2830 235° Southwest 423 487 38,000  Level FlightAware
02:49PM 39.9970 142.1900 235° Southwest 422 486 38,000  Level FlightAware
02:50PM 39.9520 142.1090 234° Southwest 424 488 38,000  Level FlightAware
02:51PM 39.9050 142.0230 235° Southwest 421 484 38,000  Level FlightAware
02:51PM 39.8610 141.9420 235° Southwest 422 486 38,000  Level FlightAware
02:52PM 39.8080 141.8410 236° Southwest 419 482 38,000  Level FlightAware
02:53PM 39.7620 141.7530 236° Southwest 416 479 38,000  Level FlightAware
02:53PM 39.7180 141.6700 235° Southwest 415 478 38,000  Level FlightAware
02:54PM 39.6740 141.5860 236° Southwest 413 475 38,000  Level FlightAware
02:55PM 39.6250 141.4940 235° Southwest 411 473 38,000  Level FlightAware
02:56PM 39.5820 141.4110 236° Southwest 411 473 38,000  Level FlightAware
02:56PM 39.5320 141.3190 235° Southwest 411 473 38,000  Level FlightAware
02:57PM 39.4890 141.2370 236° Southwest 411 473 38,000  Level FlightAware
02:58PM 39.4450 141.1550 235° Southwest 412 474 38,000  Level FlightAware
02:58PM 39.3880 141.0690 229° Southwest 414 476 38,000  Level FlightAware
02:59PM 39.3350 140.9960 227° Southwest 420 483 38,000  Level FlightAware
03:00PM 39.2750 140.9140 227° Southwest 414 476 38,000  Level FlightAware
03:00PM 39.2220 140.8410 227° Southwest 414 476 38,000  Level FlightAware
03:01PM 39.1620 140.7580 227° Southwest 411 473 38,000  Level FlightAware
03:02PM 39.1260 140.6730 241° Southwest 409 471 38,000  Level FlightAware
03:02PM 39.0940 140.5980 241° Southwest 408 470 38,000  Level FlightAware
03:03PM 39.0460 140.4920 240° Southwest 408 470 38,000  Level FlightAware
03:04PM 39.0090 140.4060 241° Southwest 410 472 38,000  Level FlightAware
03:05PM 38.9680 140.3090 241° Southwest 410 472 38,000  Level FlightAware
03:05PM 38.9320 140.2250 241° Southwest 410 472 38,000  Level FlightAware
03:06PM 38.8950 140.1390 241° Southwest 411 473 38,000  Level FlightAware
03:07PM 38.8540 140.0420 242° Southwest 412 474 38,000  Level FlightAware
03:07PM 38.8170 139.9570 241° Southwest 408 470 38,000  Level FlightAware
03:08PM 38.7790 139.8690 241° Southwest 410 472 38,000  Level FlightAware
03:11PM 38.6714 139.5267 248° West  Level Estimated
03:11PM 38.6400 139.5470 248° West 405 466 38,000  Level FlightAware
03:11PM 38.5990 139.4530 241° Southwest 411 473 38,000  Level FlightAware
03:12PM 38.5660 139.3780 241° Southwest 411 473 38,000  Level FlightAware
03:13PM 38.5280 139.2930 240° Southwest 412 474 38,000  Level FlightAware
03:14PM 38.4830 139.1880 241° Southwest 414 476 38,000  Level FlightAware
03:14PM 38.4490 139.1130 240° Southwest 414 476 38,000  Level FlightAware
03:15PM 38.4040 139.0100 241° Southwest 413 475 38,000  Level FlightAware
03:16PM 38.3640 138.9200 240° Southwest 413 475 38,000  Level FlightAware
03:16PM 38.3260 138.8350 240° Southwest 412 474 38,000  Level FlightAware
03:17PM 38.2900 138.7540 240° Southwest 412 474 38,000  Level FlightAware
03:18PM 38.2560 138.6790 240° Southwest 413 475 38,000  Level FlightAware
03:18PM 38.2030 138.5600 240° Southwest 411 473 38,000  Level FlightAware
03:19PM 38.1710 138.4880 241° Southwest 411 473 38,000  Level FlightAware
03:20PM 38.1260 138.3880 240° Southwest 409 471 38,000  Level FlightAware
03:21PM 38.0870 138.3080 238° Southwest 411 473 38,000  Level FlightAware
03:21PM 38.0490 138.2320 238° Southwest 410 472 38,000  Level FlightAware
03:22PM 38.0000 138.1350 237° Southwest 408 470 38,000  Level FlightAware
03:23PM 37.9640 138.0610 238° Southwest 408 470 38,000  Level FlightAware
03:23PM 37.9220 137.9780 237° Southwest 408 470 38,000  Level FlightAware
03:24PM 37.8740 137.8810 238° Southwest 406 467 38,000  Level FlightAware
03:25PM 37.8380 137.8090 238° Southwest 405 466 38,000  Level FlightAware
03:25PM 37.7890 137.7110 238° Southwest 405 466 38,000  Level FlightAware
03:26PM 37.7480 137.6310 237° Southwest 405 466 38,000  Level FlightAware
03:27PM 37.7050 137.5450 238° Southwest 405 466 38,000  Level FlightAware
03:28PM 37.6600 137.4570 237° Southwest 406 467 38,000  Level FlightAware
03:28PM 37.6090 137.3560 238° Southwest 407 468 38,000  Level FlightAware
03:29PM 37.5680 137.2760 237° Southwest 407 468 38,000  Level FlightAware
03:30PM 37.5320 137.2050 237° Southwest 407 468 38,000 60 Level FlightAware
03:31PM 37.4800 137.1040 237° Southwest 410 472 38,100 420 Climbing FlightAware
03:31PM 37.4490 137.0420 238° Southwest 414 476 38,600 960 Climbing FlightAware
03:32PM 37.4010 136.9500 237° Southwest 419 482 39,300 900 Climbing FlightAware
03:33PM 37.3560 136.8620 237° Southwest 424 488 39,900 420 Climbing FlightAware
03:33PM 37.3010 136.7560 237° Southwest 420 483 40,000 60 Climbing FlightAware
03:34PM 37.2590 136.6740 237° Southwest 420 483 40,000  Level FlightAware
03:35PM 37.2100 136.5810 237° Southwest 419 482 40,000  Level FlightAware
03:35PM 37.1670 136.4990 237° Southwest 419 482 40,000  Level FlightAware
03:36PM 37.1190 136.4060 237° Southwest 419 482 40,000  Level FlightAware
03:37PM 37.0770 136.3250 237° Southwest 418 481 40,000  Level FlightAware
03:38PM 37.0340 136.2440 236° Southwest 418 481 40,000  Level FlightAware
03:38PM 36.9860 136.1530 237° Southwest 416 479 40,000  Level FlightAware
03:39PM 36.9420 136.0690 237° Southwest 415 478 40,000  Level FlightAware
03:40PM 36.8950 135.9820 236° Southwest 415 478 40,000  Level FlightAware
03:40PM 36.8570 135.9100 237° Southwest 414 476 40,000  Level FlightAware
03:41PM 36.8090 135.8190 237° Southwest 414 476 40,000  Level FlightAware
03:42PM 36.7610 135.7290 236° Southwest 416 479 40,000  Level FlightAware
03:42PM 36.7190 135.6500 236° Southwest 415 478 40,000  Level FlightAware
03:43PM 36.6700 135.5580 236° Southwest 415 478 40,000  Level FlightAware
03:44PM 36.6280 135.4800 236° Southwest 414 476 40,000  Level FlightAware
03:45PM 36.5840 135.4000 236° Southwest 413 475 40,000  Level FlightAware
03:45PM 36.5370 135.3130 236° Southwest 411 473 40,000  Level FlightAware
03:46PM 36.4940 135.2330 236° Southwest 410 472 40,000  Level FlightAware
03:47PM 36.4510 135.1550 236° Southwest 411 473 40,000  Level FlightAware
03:47PM 36.4020 135.0640 236° Southwest 410 472 40,000  Level FlightAware
03:48PM 36.3600 134.9860 236° Southwest 410 472 40,000  Level FlightAware
03:49PM 36.3110 134.8970 236° Southwest 410 472 40,000  Level FlightAware
03:49PM 36.2710 134.8240 236° Southwest 410 472 40,000  Level FlightAware
03:50PM 36.2240 134.7380 236° Southwest 410 472 40,000  Level FlightAware
03:52PM 36.1170 134.5440 236° Southwest 414 476 40,000  Level FlightAware
03:53PM 36.0680 134.4560 235° Southwest 415 478 40,000  Level FlightAware
03:53PM 36.0250 134.3780 236° Southwest 415 478 40,000  Level FlightAware
03:54PM 35.9840 134.3040 236° Southwest 416 479 40,000  Level FlightAware
03:55PM 35.9370 134.2210 235° Southwest 417 480 40,000  Level FlightAware
03:55PM 35.8890 134.1340 236° Southwest 417 480 40,000  Level FlightAware
03:56PM 35.8390 134.0450 235° Southwest 417 480 40,000  Level FlightAware
03:57PM 35.7950 133.9670 235° Southwest 417 480 40,000  Level FlightAware
03:57PM 35.7510 133.8890 235° Southwest 416 479 40,000  Level FlightAware
03:58PM 35.7020 133.8020 235° Southwest 416 479 40,000  Level FlightAware
03:59PM 35.6580 133.7250 235° Southwest 415 478 40,000  Level FlightAware
03:59PM 35.6220 133.6610 235° Southwest 415 478 40,000  Level FlightAware
04:00PM 35.5540 133.5410 235° Southwest 415 478 40,000  Level FlightAware
04:01PM 35.5050 133.4550 235° Southwest 414 476 40,000  Level FlightAware
04:02PM 35.4660 133.3870 235° Southwest 413 475 40,000  Level FlightAware
04:02PM 35.4180 133.3040 235° Southwest 410 472 40,000  Level FlightAware
04:05PM 35.3301 133.0201 232° Southwest  Level Estimated
04:06PM 35.3223 132.8723 266° West  Level FlightAware Approximate
04:07PM 35.2989 132.7399 231° Southwest  Level FlightAware Approximate
04:08PM 35.2224 132.6253 231° Southwest  Level FlightAware Approximate
04:09PM 35.1459 132.5110 231° Southwest  Level FlightAware Approximate
04:10PM 35.0692 132.3968 231° Southwest  Level FlightAware Approximate
04:11PM 34.9925 132.2829 231° Southwest  Level FlightAware Approximate
04:12PM 34.9156 132.1692 231° Southwest  Level FlightAware Approximate
04:13PM 34.8387 132.0556 230° Southwest  Level FlightAware Approximate
04:14PM 34.7616 131.9424 230° Southwest  Level FlightAware Approximate
04:15PM 34.6844 131.8293 230° Southwest  Level FlightAware Approximate
04:16PM 34.6071 131.7164 230° Southwest  Level FlightAware Approximate
04:17PM 34.5298 131.6037 230° Southwest  Level FlightAware Approximate
04:18PM 34.4523 131.4913 230° Southwest  Level FlightAware Approximate
04:19PM 34.3747 131.3791 230° Southwest  Level FlightAware Approximate
04:20PM 34.2970 131.2670 230° Southwest  Level FlightAware Approximate
04:20PM 34.2670 131.3520 230° Southwest 395 455 40,000  Level FlightAware
04:21PM 34.2230 131.2790 234° Southwest 392 451 40,000  Level FlightAware
04:21PM 34.1740 131.1990 234° Southwest 391 450 40,000  Level FlightAware
04:22PM 34.1310 131.1280 234° Southwest 389 448 40,000  Level FlightAware
04:23PM 34.0820 131.0480 234° Southwest 388 447 40,000  Level FlightAware
04:24PM 34.0390 130.9770 234° Southwest 387 445 40,000  Level FlightAware
04:24PM 33.9980 130.9100 234° Southwest 387 445 40,000  Level FlightAware
04:25PM 33.9490 130.8320 233° Southwest 386 444 40,000  Level FlightAware
04:26PM 33.9090 130.7650 234° Southwest 385 443 40,000  Level FlightAware
04:26PM 33.8580 130.6830 233° Southwest 387 445 40,000  Level FlightAware
04:27PM 33.8140 130.6120 233° Southwest 388 447 40,000  Level FlightAware
04:28PM 33.7680 130.5370 234° Southwest 393 452 40,000  Level FlightAware
04:28PM 33.7180 130.4570 233° Southwest 394 453 40,000  Level FlightAware
04:29PM 33.6740 130.3870 233° Southwest 396 456 40,000  Level FlightAware
04:30PM 33.6250 130.3080 233° Southwest 396 456 40,000  Level FlightAware
04:31PM 33.5800 130.2380 232° Southwest 396 456 40,000  Level FlightAware
04:31PM 33.5300 130.1590 233° Southwest 398 458 40,000  Level FlightAware
04:32PM 33.4910 130.0890 236° Southwest 394 453 40,000  Level FlightAware
04:33PM 33.4600 130.0070 246° West 393 452 40,000  Level FlightAware
04:33PM 33.4330 129.9150 251° West 392 451 40,000  Level FlightAware
04:34PM 33.4090 129.8330 251° West 393 452 40,000  Level FlightAware
04:35PM 33.3820 129.7430 250° West 394 453 40,000  Level FlightAware
04:35PM 33.3570 129.6590 250° West 392 451 40,000  Level FlightAware
04:36PM 33.3340 129.5830 250° West 392 451 40,000  Level FlightAware
04:37PM 33.3080 129.4950 251° West 392 451 40,000  Level FlightAware
04:38PM 33.2810 129.4050 250° West 392 451 40,000  Level FlightAware
04:38PM 33.2540 129.3160 250° West 393 452 40,000  Level FlightAware
04:39PM 33.2290 129.2330 250° West 393 452 40,000  Level FlightAware
04:40PM 33.2070 129.1600 250° West 394 453 40,000  Level FlightAware
04:41PM 33.1720 129.0430 250° West 394 453 40,000  Level FlightAware
04:42PM 33.1400 128.9370 250° West 396 456 40,000  Level FlightAware
04:42PM 33.1180 128.8670 249° West 396 456 40,000  Level FlightAware
04:43PM 33.0970 128.7970 250° West 396 456 40,000  Level FlightAware
04:44PM 33.0760 128.7280 250° West 396 456 40,000  Level FlightAware
04:44PM 33.0540 128.6580 249° West 396 456 40,000  Level FlightAware
04:45PM 33.0280 128.5700 251° West 396 456 40,000  Level FlightAware
04:46PM 33.0060 128.5010 249° West 396 456 40,000  Level FlightAware
04:46PM 32.9850 128.4310 250° West 396 456 40,000  Level FlightAware
04:47PM 32.9640 128.3610 250° West 396 456 40,000  Level FlightAware
04:48PM 32.9430 128.2910 250° West 396 456 40,000  Level FlightAware
04:49PM 32.9160 128.2040 250° West 396 456 40,000  Level FlightAware
04:49PM 32.8950 128.1340 250° West 396 456 40,000  Level FlightAware
04:50PM 32.8730 128.0650 249° West 396 456 40,000  Level FlightAware
04:51PM 32.8520 127.9950 250° West 396 456 40,000 -600 Level FlightAware
04:53PM 32.7849 127.7238 254° West  Level Estimated
04:54PM 32.7505 127.5861 254° West  Level Estimated
04:55PM 32.7160 127.4484 253° West  Level Estimated
04:56PM 32.6813 127.3109 253° West  Level Estimated
04:57PM 32.6465 127.1735 253° West  Level Estimated
04:58PM 32.6116 127.0362 253° West  Level Estimated
04:59PM 32.5765 126.8990 253° West  Level Estimated
05:00PM 32.5412 126.7619 253° West  Level Estimated
05:01PM 32.5058 126.6249 253° West  Level Estimated
05:02PM 32.4702 126.4880 253° West  Level Estimated
05:03PM 32.4346 126.3513 253° West  Level Estimated
05:04PM 32.3987 126.2146 253° West  Level Estimated
05:05PM 32.3627 126.0780 253° West  Level Estimated
05:06PM 32.3266 125.9416 253° West  Level Estimated
05:07PM 32.2903 125.8053 253° West  Level Estimated
05:08PM 32.2538 125.6690 252° West  Level Estimated
05:09PM 32.2173 125.5329 252° West  Level Estimated
05:10PM 32.1805 125.3969 252° West  Level Estimated
05:11PM 32.1437 125.2610 252° West  Level Estimated
05:12PM 32.1066 125.1252 252° West  Level Estimated
05:13PM 32.0695 124.9895 252° West  Level Estimated
05:14PM 32.0322 124.8540 252° West  Level Estimated
05:15PM 31.9947 124.7185 252° West  Level Estimated
05:16PM 31.9571 124.5832 252° West  Level Estimated
05:17PM 31.9194 124.4479 252° West  Level Estimated
05:18PM 31.8815 124.3128 252° West  Level Estimated
05:19PM 31.8435 124.1778 252° West  Level Estimated
05:20PM 31.8053 124.0429 252° West  Level Estimated
05:21PM 31.7670 123.9081 252° West  Level Estimated
05:22PM 31.7285 123.7734 251° West  Level Estimated
05:23PM 31.6900 123.6389 251° West  Level Estimated
05:24PM 31.6512 123.5044 251° West  Level Estimated
05:25PM 31.6124 123.3701 251° West  Level Estimated
05:26PM 31.5733 123.2359 251° West  Level Estimated
05:27PM 31.5342 123.1017 251° West  Level Estimated
05:28PM 31.4949 122.9677 251° West  Level Estimated
05:29PM 31.4555 122.8338 251° West  Level Estimated
05:30PM 31.4159 122.7001 251° West  Level Estimated
05:31PM 31.3762 122.5664 251° West  Level Estimated
05:32PM 31.3363 122.4329 251° West  Level Estimated
05:32PM 31.3340 122.6150 251° West 360 414 15,900  Level FlightAware
05:33PM 31.2963 122.2994 251° West  Level Estimated
05:33PM 31.3210 122.5370 259° West 360 414 15,900  Level FlightAware
05:33PM 31.3010 122.4340 257° West 358 412 13,700 -2,280 Descending FlightAware
05:34PM 31.2940 122.3370 265° West 358 412 12,000 -2,700 Descending FlightAware
05:35PM 31.3180 122.3090 315° West 344 396 10,800 -2,220 Descending FlightAware
05:35PM 31.3330 122.2400 284° West 336 387 10,000 -780 Descending FlightAware
05:36PM 31.3420 122.1980 284° West 336 387 10,000  Level FlightAware
05:36PM 31.3520 122.1530 285° West 336 387 10,000 -840 Level FlightAware
05:36PM 31.3590 122.1270 288° West 279 321 9,300 -1,380 Descending FlightAware
05:37PM 31.3760 122.0530 285° West 275 316 8,400 -2,220 Descending FlightAware
05:38PM 31.3880 122.0070 287° West 272 313 6,400 -2,940 Descending FlightAware
05:38PM 31.3910 121.9930 284° West 272 313 6,200 -1,080 Descending FlightAware
05:38PM 31.3980 121.9610 284° West 254 292 5,800 -1,380 Descending FlightAware
05:39PM 31.4020 121.9340 280° West 243 280 5,300 -1,560 Descending FlightAware
05:39PM 31.3980 121.8950 263° West 235 270 4,500 -1,500 Descending FlightAware
05:39PM 31.3970 121.8770 266° West 222 255 4,200 -1,080 Descending FlightAware
05:40PM 31.3950 121.8510 265° West 200 230 3,800 -900 Descending FlightAware
05:40PM 31.3910 121.8350 254° West 189 217 3,600 -1,080 Descending FlightAware
05:41PM 31.3810 121.8060 248° West 182 209 3,000 -1,200 Descending FlightAware
05:41PM 31.3720 121.7830 245° Southwest 180 207 2,500 -1,020 Descending FlightAware
05:42PM 31.3620 121.7570 246° West 180 207 2,100 -540 Descending FlightAware
05:42PM 31.3550 121.7440 238° Southwest 180 207 2,100  Level FlightAware
05:42PM 31.3480 121.7390 211° Southwest 171 197 2,100  Level FlightAware
05:42PM 31.3240 121.7320 194° South 169 194 2,100  Level FlightAware
05:43PM 31.2950 121.7260 190° South 169 194 2,100  Level FlightAware
05:43PM 31.2800 121.7410 139° Southeast 173 199 2,100  Level FlightAware
05:44PM 31.2560 121.7500 162° South 173 199 2,100 -540 Level FlightAware
05:44PM 31.2350 121.7580 162° South 167 192 1,600 -900 Descending FlightAware
05:46PM 31.1830 121.7780 162° South 124 143 600 -720 Descending FlightAware
05:46PM 31.1640 121.7850 163° South 124 143 300 -360 Descending FlightAware
05:47PM 31.1510 121.7900 162° South 124 143 300  Level FlightAware
05:49PM 31.1428 121.7924 259° West  Level Estimated
05:50PM 31.1428 121.7924 259° West  Level Estimated
05:51PM 31.1428 121.7924 259° West  Level Estimated
05:52PM 31.1428 121.7924 259° West  Level Estimated
05:53PM 31.1428 121.7924 259° West  Level Estimated
05:54PM 31.1428 121.7924 259° West  Level Estimated
05:55PM 31.1428 121.7924 259° West  Level Estimated
05:56PM 31.1428 121.7924 259° West  Level Estimated
05:57PM 31.1428 121.7924 259° West  Level Estimated
05:58PM 31.1428 121.7924 259° West  Level Estimated
05:59PM 31.1428 121.7924 259° West  Level Estimated
06:00PM 31.1428 121.7924 259° West  Level Estimated
06:01PM 31.1428 121.7924 259° West  Level Estimated
06:02PM 31.1428 121.7924 259° West  Level Estimated
06:03PM 31.1428 121.7924 259° West  Level Estimated
06:04PM 31.1428 121.7924 259° West  Level Estimated
06:05PM 31.1428 121.7924 259° West  Level Estimated
06:06PM 31.1428 121.7924 259° West  Level Estimated
06:07PM 31.1428 121.7924 259° West  Level Estimated
06:08PM 31.1428 121.7924 259° West  Level Estimated
06:09PM 31.1428 121.7924 259° West  Level Estimated